createdAt,value
2022-08-22T00:01:52.822Z,2.10
2022-08-22T00:02:59.283Z,2.30
2022-08-22T00:03:09.242Z,2.20
2022-08-22T00:05:33.803Z,2.10
2022-08-22T00:09:33.902Z,2.80
2022-08-22T00:13:27.430Z,2.30
2022-08-22T00:17:34.122Z,2.40
2022-08-22T00:21:19.988Z,2.00
2022-08-22T00:25:26.189Z,2.00
2022-08-22T00:29:06.522Z,2.70
2022-08-22T00:32:59.725Z,2.50
2022-08-22T00:36:48.125Z,2.70
2022-08-22T00:40:39.759Z,2.90
2022-08-22T00:44:46.088Z,2.30
2022-08-22T00:48:37.744Z,2.60
2022-08-22T00:52:32.451Z,2.30
2022-08-22T00:56:24.384Z,2.20
2022-08-22T01:00:12.746Z,3.30
2022-08-22T01:04:09.787Z,3.00
2022-08-22T01:08:10.044Z,3.20
2022-08-22T01:12:15.967Z,3.00
2022-08-22T01:16:08.031Z,3.00
2022-08-22T01:19:52.935Z,3.20
2022-08-22T01:23:56.540Z,3.30
2022-08-22T01:27:59.667Z,2.80
2022-08-22T01:31:49.503Z,2.90
2022-08-22T01:35:22.859Z,3.30
2022-08-22T01:38:56.908Z,2.20
2022-08-22T01:42:32.562Z,2.60
2022-08-22T01:47:03.833Z,3.40
2022-08-22T01:50:51.497Z,2.90
2022-08-22T01:54:47.711Z,3.20
2022-08-22T01:58:11.478Z,3.80
2022-08-22T02:02:04.840Z,3.30
2022-08-22T02:09:28.970Z,3.10
2022-08-22T02:13:00.602Z,3.20
2022-08-22T02:20:42.855Z,3.70
2022-08-22T02:24:30.782Z,3.60
2022-08-22T02:28:57.466Z,3.60
2022-08-22T02:32:48.763Z,3.30
2022-08-22T02:41:17.726Z,3.40
2022-08-22T02:45:06.836Z,3.00
2022-08-22T02:48:53.039Z,3.00
2022-08-22T02:52:31.499Z,3.40
2022-08-22T02:56:28.215Z,3.60
2022-08-22T03:00:31.384Z,4.00
2022-08-22T03:04:17.393Z,3.40
2022-08-22T03:08:10.359Z,3.60
2022-08-22T03:20:32.091Z,3.80
2022-08-22T03:24:34.474Z,4.00
2022-08-22T03:27:57.081Z,3.10
2022-08-22T03:31:47.885Z,3.40
2022-08-22T03:35:46.303Z,3.30
2022-08-22T03:43:54.162Z,3.60
2022-08-22T03:47:40.209Z,2.90
2022-08-22T03:51:40.268Z,3.00
2022-08-22T03:55:39.787Z,3.10
2022-08-22T03:59:33.291Z,2.90
2022-08-22T04:03:01.094Z,2.90
2022-08-22T04:06:56.387Z,3.30
2022-08-22T04:10:45.904Z,2.90
2022-08-22T04:14:16.856Z,4.30
2022-08-22T04:18:04.195Z,3.30
2022-08-22T04:22:01.956Z,3.90
2022-08-22T04:25:54.420Z,2.70
2022-08-22T04:29:46.625Z,3.40
2022-08-22T04:33:37.034Z,3.70
2022-08-22T04:37:27.475Z,3.90
2022-08-22T04:41:13.616Z,3.10
2022-08-22T04:49:30.774Z,3.10
2022-08-22T04:53:36.764Z,3.60
2022-08-22T04:57:23.892Z,3.00
2022-08-22T05:01:19.653Z,3.30
2022-08-22T05:05:13.822Z,3.00
2022-08-22T05:09:12.981Z,3.80
2022-08-22T05:12:57.258Z,3.40
2022-08-22T05:16:44.882Z,3.10
2022-08-22T05:24:40.858Z,4.10
2022-08-22T05:28:39.950Z,3.30
2022-08-22T05:32:26.052Z,3.40
2022-08-22T05:36:04.748Z,3.30
2022-08-22T05:39:53.413Z,3.60
2022-08-22T05:43:43.654Z,2.80
2022-08-22T05:47:34.188Z,3.60
2022-08-22T05:51:28.820Z,3.20
2022-08-22T05:55:16.426Z,3.40
2022-08-22T05:59:18.430Z,3.10
2022-08-22T06:03:42.019Z,3.30
2022-08-22T06:07:25.532Z,3.80
2022-08-22T06:11:22.750Z,2.90
2022-08-22T06:15:12.531Z,3.00
2022-08-22T06:18:55.133Z,3.50
2022-08-22T06:22:42.199Z,3.20
2022-08-22T06:26:28.543Z,3.30
2022-08-22T06:30:16.575Z,3.70
2022-08-22T06:34:03.324Z,4.00
2022-08-22T06:37:50.848Z,3.80
2022-08-22T06:41:39.319Z,4.00
2022-08-22T06:45:33.271Z,4.20
2022-08-22T06:49:20.877Z,4.30
2022-08-22T06:53:02.495Z,4.80
2022-08-22T06:56:53.881Z,3.80
2022-08-22T07:00:41.677Z,4.70
2022-08-22T07:04:28.364Z,4.00
2022-08-22T07:08:16.987Z,4.00
2022-08-22T07:12:00.623Z,4.10
2022-08-22T07:15:50.898Z,4.30
2022-08-22T07:19:38.654Z,4.30
2022-08-22T07:23:26.368Z,4.60
2022-08-22T07:27:16.187Z,4.50
2022-08-22T07:30:56.382Z,3.90
2022-08-22T07:34:49.269Z,4.00
2022-08-22T07:38:34.965Z,5.00
2022-08-22T07:42:25.722Z,4.40
2022-08-22T07:46:01.708Z,4.30
2022-08-22T07:49:49.863Z,4.90
2022-08-22T07:53:34.604Z,5.20
2022-08-22T07:57:25.072Z,3.80
2022-08-22T08:01:12.913Z,4.20
2022-08-22T08:05:01.092Z,4.10
2022-08-22T08:08:48.973Z,5.20
2022-08-22T08:12:37.181Z,6.40
2022-08-22T08:16:25.208Z,4.60
2022-08-22T08:20:13.063Z,5.10
2022-08-22T08:24:03.867Z,4.50
2022-08-22T08:27:51.247Z,5.30
2022-08-22T08:31:44.990Z,6.30
2022-08-22T08:35:42.452Z,5.60
2022-08-22T08:39:52.170Z,5.70
2022-08-22T08:43:39.480Z,5.90
2022-08-22T08:47:27.299Z,5.30
2022-08-22T08:51:28.597Z,5.30
2022-08-22T08:55:30.187Z,6.80
2022-08-22T08:59:28.328Z,6.00
2022-08-22T09:03:33.743Z,6.30
2022-08-22T09:07:15.631Z,8.00
2022-08-22T09:11:09.987Z,4.80
2022-08-22T09:15:02.198Z,4.90
2022-08-22T09:19:14.670Z,6.20
2022-08-22T09:23:00.683Z,6.80
2022-08-22T09:26:57.270Z,5.70
2022-08-22T09:30:48.399Z,7.10
2022-08-22T09:35:00.483Z,6.10
2022-08-22T09:39:03.019Z,6.40
2022-08-22T09:42:59.142Z,6.70
2022-08-22T09:46:50.289Z,6.20
2022-08-22T09:50:44.455Z,6.60
2022-08-22T09:54:37.574Z,6.50
2022-08-22T09:58:40.246Z,6.60
2022-08-22T10:02:36.165Z,6.20
2022-08-22T10:06:24.456Z,6.70
2022-08-22T10:10:15.270Z,6.60
2022-08-22T10:14:13.994Z,6.70
2022-08-22T10:18:16.201Z,6.50
2022-08-22T10:21:46.632Z,6.60
2022-08-22T10:25:26.128Z,6.90
2022-08-22T10:28:40.378Z,6.90
2022-08-22T10:32:37.491Z,6.30
2022-08-22T10:36:37.941Z,5.50
2022-08-22T10:40:29.947Z,5.10
2022-08-22T10:44:25.543Z,5.50
2022-08-22T10:48:16.129Z,4.00
2022-08-22T10:51:44.810Z,4.90
2022-08-22T10:55:40.131Z,4.50
2022-08-22T10:59:30.609Z,4.30
2022-08-22T11:03:33.649Z,5.70
2022-08-22T11:07:34.552Z,7.80
2022-08-22T11:11:23.155Z,7.00
2022-08-22T11:15:28.448Z,6.90
2022-08-22T11:19:15.039Z,6.90
2022-08-22T11:23:24.820Z,8.80
2022-08-22T11:27:25.365Z,7.30
2022-08-22T11:31:27.126Z,5.90
2022-08-22T11:35:31.136Z,6.70
2022-08-22T11:39:50.057Z,6.80
2022-08-22T11:43:47.987Z,6.40
2022-08-22T11:47:30.573Z,6.50
2022-08-22T11:51:25.572Z,5.60
2022-08-22T11:55:33.227Z,6.30
2022-08-22T11:59:52.827Z,6.30
2022-08-22T12:03:58.188Z,4.30
2022-08-22T12:07:56.368Z,6.40
2022-08-22T12:11:38.802Z,5.10
2022-08-22T12:15:22.431Z,5.20
2022-08-22T12:19:22.973Z,3.40
2022-08-22T12:23:09.257Z,4.00
2022-08-22T12:26:48.008Z,5.40
2022-08-22T12:30:51.745Z,3.60
2022-08-22T12:34:48.700Z,3.50
2022-08-22T12:38:28.995Z,2.50
2022-08-22T12:41:54.199Z,2.80
2022-08-22T12:45:52.435Z,4.00
2022-08-22T12:49:22.270Z,3.00
2022-08-22T12:53:18.134Z,3.00
2022-08-22T12:57:23.800Z,3.70
2022-08-22T13:01:23.344Z,3.50
2022-08-22T13:05:03.151Z,2.90
2022-08-22T13:09:02.927Z,3.60
2022-08-22T13:12:59.243Z,3.30
2022-08-22T13:16:49.034Z,3.00
2022-08-22T13:20:36.344Z,3.50
2022-08-22T13:24:38.817Z,2.80
2022-08-22T13:28:29.149Z,2.70
2022-08-22T13:32:33.381Z,3.20
2022-08-22T13:36:26.856Z,3.10
2022-08-22T13:40:15.416Z,3.10
2022-08-22T13:44:03.639Z,2.40
2022-08-22T13:47:56.728Z,3.20
2022-08-22T13:51:51.763Z,2.60
2022-08-22T13:55:50.913Z,2.70
2022-08-22T13:59:50.918Z,3.30
2022-08-22T14:03:48.682Z,3.00
2022-08-22T14:07:40.211Z,2.80
2022-08-22T14:11:33.044Z,3.20
2022-08-22T14:15:32.212Z,3.40
2022-08-22T14:19:51.474Z,3.10
2022-08-22T14:23:55.879Z,3.00
2022-08-22T14:27:30.067Z,3.00
2022-08-22T14:31:33.569Z,3.20
2022-08-22T14:35:21.669Z,3.50
2022-08-22T14:39:27.274Z,3.50
2022-08-22T14:43:25.985Z,3.70
2022-08-22T14:47:55.290Z,2.30
2022-08-22T14:56:18.177Z,3.50
2022-08-22T15:00:14.029Z,3.90
2022-08-22T15:04:11.524Z,4.20
2022-08-22T15:07:58.091Z,3.90
2022-08-22T15:11:49.878Z,3.60
2022-08-22T15:15:52.879Z,3.40
2022-08-22T15:19:35.113Z,4.30
2022-08-22T15:23:23.886Z,4.20
2022-08-22T15:27:21.925Z,4.00
2022-08-22T15:31:12.739Z,3.70
2022-08-22T15:35:12.639Z,3.70
2022-08-22T15:39:06.787Z,4.00
2022-08-22T15:42:47.885Z,3.00
2022-08-22T15:46:21.341Z,2.80
2022-08-22T15:50:21.121Z,3.20
2022-08-22T15:54:24.510Z,3.40
2022-08-22T15:58:14.868Z,3.80
2022-08-22T16:02:04.857Z,3.20
2022-08-22T16:05:23.989Z,3.40
2022-08-22T16:09:11.796Z,4.10
2022-08-22T16:12:46.049Z,3.80
2022-08-22T16:16:54.274Z,3.10
2022-08-22T16:29:06.861Z,3.10
2022-08-22T16:32:58.432Z,3.70
2022-08-22T16:36:52.378Z,2.80
2022-08-22T16:44:03.217Z,3.30
2022-08-22T16:47:57.818Z,3.10
2022-08-22T16:51:40.657Z,3.00
2022-08-22T16:55:34.929Z,3.50
2022-08-22T16:59:43.303Z,3.50
2022-08-22T17:03:24.357Z,2.90
2022-08-22T17:07:28.713Z,3.80
2022-08-22T17:11:48.249Z,3.10
2022-08-22T17:15:22.222Z,3.90
2022-08-22T17:19:01.698Z,4.10
2022-08-22T17:22:57.070Z,2.10
2022-08-22T17:26:48.206Z,2.90
2022-08-22T17:30:07.529Z,3.80
2022-08-22T17:33:02.827Z,4.00
2022-08-22T17:36:35.767Z,3.40
2022-08-22T17:45:05.821Z,4.10
2022-08-22T17:49:45.301Z,3.80
2022-08-22T17:53:16.472Z,3.60
2022-08-22T17:57:14.014Z,4.30
2022-08-22T18:01:11.070Z,4.00
2022-08-22T18:09:14.334Z,5.50
2022-08-22T18:13:08.994Z,4.60
2022-08-22T18:21:00.474Z,4.40
2022-08-22T18:33:58.752Z,4.60
2022-08-22T18:37:35.436Z,4.50
2022-08-22T18:41:11.238Z,3.70
2022-08-22T18:44:42.483Z,4.00
2022-08-22T18:49:11.627Z,4.70
2022-08-22T18:56:12.347Z,4.00
2022-08-22T18:59:35.349Z,4.30
2022-08-22T19:07:57.585Z,4.20
2022-08-22T19:11:50.664Z,4.60
2022-08-22T19:15:50.653Z,4.50
2022-08-22T19:19:45.746Z,4.60
2022-08-22T19:23:32.813Z,4.80
2022-08-22T19:27:30.864Z,5.30
2022-08-22T19:31:53.403Z,6.50
2022-08-22T19:35:23.270Z,5.30
2022-08-22T19:43:48.680Z,5.40
2022-08-22T19:47:16.984Z,5.10
2022-08-22T19:51:28.021Z,5.20
2022-08-22T20:02:31.514Z,4.60
2022-08-22T20:06:53.628Z,5.30
2022-08-22T20:11:03.542Z,5.00
2022-08-22T20:14:55.527Z,4.70
2022-08-22T20:22:46.893Z,4.50
2022-08-22T20:31:19.070Z,4.60
2022-08-22T20:35:09.780Z,3.90
2022-08-22T20:39:00.202Z,4.30
2022-08-22T20:42:51.026Z,3.90
2022-08-22T20:46:48.169Z,4.00
2022-08-22T20:50:44.660Z,4.40
2022-08-22T20:54:30.564Z,3.70
2022-08-22T20:58:25.043Z,3.00
2022-08-22T21:02:13.917Z,4.10
2022-08-22T21:06:14.033Z,3.40
2022-08-22T21:10:11.061Z,3.70
2022-08-22T21:14:07.238Z,3.20
2022-08-22T21:17:57.462Z,3.10
2022-08-22T21:21:48.097Z,3.20
2022-08-22T21:25:38.135Z,3.10
2022-08-22T21:29:44.365Z,2.10
2022-08-22T21:33:38.242Z,2.70
2022-08-22T21:37:31.897Z,2.10
2022-08-22T21:41:22.714Z,2.80
2022-08-22T21:45:19.857Z,1.70
2022-08-22T21:49:16.442Z,1.70
2022-08-22T21:53:10.155Z,2.70
2022-08-22T21:57:11.741Z,2.90
2022-08-22T22:00:57.549Z,2.30
2022-08-22T22:04:47.221Z,3.00
2022-08-22T22:08:35.348Z,2.90
2022-08-22T22:12:23.523Z,3.30
2022-08-22T22:16:22.287Z,2.40
2022-08-22T22:20:16.667Z,2.10
2022-08-22T22:24:04.335Z,2.70
2022-08-22T22:27:51.929Z,3.00
2022-08-22T22:31:41.476Z,2.70
2022-08-22T22:35:29.494Z,2.50
2022-08-22T22:39:18.812Z,2.70
2022-08-22T22:43:08.408Z,2.40
2022-08-22T22:46:58.262Z,2.70
2022-08-22T22:50:47.295Z,2.60
2022-08-22T22:54:36.814Z,2.10
2022-08-22T22:58:30.514Z,2.30
2022-08-22T23:02:18.279Z,2.20
2022-08-22T23:06:06.893Z,1.90
2022-08-22T23:09:56.222Z,2.50
2022-08-22T23:13:49.431Z,1.60
2022-08-22T23:17:38.176Z,2.10
2022-08-22T23:21:26.140Z,2.30
2022-08-22T23:25:31.549Z,2.50
2022-08-22T23:29:20.355Z,2.30
2022-08-22T23:33:08.029Z,2.70
2022-08-22T23:36:56.097Z,2.90
2022-08-22T23:40:46.069Z,2.60
2022-08-22T23:44:33.722Z,2.90
2022-08-22T23:48:24.026Z,2.60
2022-08-22T23:52:12.073Z,2.60
2022-08-22T23:56:01.390Z,2.70
2022-08-22T23:59:57.636Z,2.00
